This is the latest recevied weather packets stored in our database for station/object IV6ZJU-13. If no packets are shown the sender has not sent any weather packets the latest 10 day(s).
| Time | Temp. | Humidity | Pressure | Rain* | Wind** | Luminosity | Snow |
|---|---|---|---|---|---|---|---|
| 1777796387 | 18.33° C | 52% | 1011.5 hPa | - | - | - | - |
| 1777795486 | 18.33° C | 39% | 1011.4 hPa | - | - | - | - |
| 1777794587 | 18.33° C | 37% | 1011.4 hPa | - | - | - | - |
| 1777793686 | 17.78° C | 35% | 1011.5 hPa | - | - | - | - |
| 1777792787 | 17.78° C | 37% | 1011.4 hPa | - | - | - | - |
| 1777791885 | 17.22° C | 36% | 1011.4 hPa | - | - | - | - |
| 1777790987 | 16.67° C | 45% | 1011.4 hPa | - | - | - | - |
| 1777790087 | 16.11° C | 46% | 1011.4 hPa | - | - | - | - |
| 1777789187 | 15.56° C | 45% | 1011.4 hPa | - | - | - | - |
| 1777788285 | 15.56° C | 45% | 1011.4 hPa | - | - | - | - |
| 1777787386 | 15° C | 45% | 1011.3 hPa | - | - | - | - |
| 1777786484 | 14.44° C | 45% | 1011.4 hPa | - | - | - | - |
| 1777785586 | 13.89° C | 45% | 1011.4 hPa | - | - | - | - |
| 1777784684 | 13.33° C | 45% | 1011.2 hPa | - | - | - | - |
| 1777783786 | 12.78° C | 46% | 1011.1 hPa | - | - | - | - |
| 1777782881 | 12.22° C | 47% | 1011.2 hPa | - | - | - | - |
| 1777781981 | 12.22° C | 45% | 1011 hPa | - | - | - | - |
| 1777781087 | 12.22° C | 46% | 1011.1 hPa | - | - | - | - |
| 1777769393 | 13.33° C | 45% | 1012 hPa | - | - | - | - |
| 1777763993 | 14.44° C | 44% | 1012.8 hPa | - | - | - | - |
| 1777762186 | 15° C | 43% | 1012.9 hPa | - | - | - | - |
| 1777761281 | 15° C | 44% | 1013 hPa | - | - | - | - |
| 1777760381 | 14.44° C | 45% | 1012.9 hPa | - | - | - | - |
| 1777759486 | 15° C | 45% | 1012.9 hPa | - | - | - | - |
| 1777758586 | 15° C | 45% | 1012.9 hPa | - | - | - | - |
* Rain since midnight (hover to see other rain measurements)
** Current wind speed in m/s (hover to see current wind gust speed)